createdAt,value
2022-10-13T00:01:16.037Z,74.66
2022-10-13T00:03:47.168Z,74.59
2022-10-13T00:06:18.946Z,73.90
2022-10-13T00:08:46.675Z,75.03
2022-10-13T00:11:21.515Z,74.56
2022-10-13T00:13:50.251Z,74.45
2022-10-13T00:16:21.991Z,75.90
2022-10-13T00:18:51.946Z,76.55
2022-10-13T00:21:24.338Z,75.86
2022-10-13T00:23:55.537Z,76.50
2022-10-13T00:26:24.977Z,75.71
2022-10-13T00:28:53.316Z,74.97
2022-10-13T00:31:25.597Z,75.86
2022-10-13T00:33:55.757Z,75.96
2022-10-13T00:36:24.258Z,77.04
2022-10-13T00:38:52.945Z,76.33
2022-10-13T00:41:27.266Z,76.29
2022-10-13T00:44:26.544Z,75.89
2022-10-13T00:46:56.251Z,75.43
2022-10-13T00:49:26.040Z,75.63
2022-10-13T00:51:53.217Z,75.27
2022-10-13T00:54:23.887Z,75.84
2022-10-13T00:56:54.813Z,74.94
2022-10-13T00:59:29.035Z,75.56
2022-10-13T01:01:59.411Z,75.09
2022-10-13T01:04:33.024Z,76.45
2022-10-13T01:07:01.401Z,75.52
2022-10-13T01:09:35.485Z,77.24
2022-10-13T01:12:23.765Z,77.86
2022-10-13T01:15:16.374Z,77.75
2022-10-13T01:17:59.682Z,77.92
2022-10-13T01:20:53.757Z,77.53
2022-10-13T01:24:30.846Z,78.00
2022-10-13T01:27:43.416Z,79.68
2022-10-13T01:30:14.871Z,78.16
2022-10-13T01:33:06.250Z,78.65
2022-10-13T01:36:01.076Z,79.50
2022-10-13T01:38:49.894Z,78.89
2022-10-13T01:41:35.798Z,77.92
2022-10-13T01:44:05.170Z,77.98
2022-10-13T01:46:38.163Z,77.96
2022-10-13T01:49:14.029Z,77.76
2022-10-13T01:51:42.623Z,79.98
2022-10-13T01:54:09.894Z,79.41
2022-10-13T01:56:37.056Z,78.06
2022-10-13T01:59:13.151Z,78.10
2022-10-13T02:02:15.987Z,77.80
2022-10-13T02:05:40.071Z,78.12
2022-10-13T02:08:44.626Z,79.51
2022-10-13T02:11:18.394Z,77.65
2022-10-13T02:13:59.744Z,78.42
2022-10-13T02:16:34.121Z,79.02
2022-10-13T02:19:06.806Z,79.52
2022-10-13T02:21:37.308Z,79.48
2022-10-13T02:24:09.334Z,79.91
2022-10-13T02:26:39.908Z,79.01
2022-10-13T02:29:16.275Z,78.24
2022-10-13T02:31:46.604Z,77.00
2022-10-13T02:34:17.084Z,78.83
2022-10-13T02:36:44.178Z,79.26
2022-10-13T02:39:12.065Z,78.37
2022-10-13T02:41:39.548Z,78.49
2022-10-13T02:44:07.459Z,78.01
2022-10-13T02:46:35.473Z,77.20
2022-10-13T02:49:02.579Z,78.47
2022-10-13T02:51:29.712Z,78.10
2022-10-13T02:53:56.938Z,79.47
2022-10-13T02:56:24.041Z,81.61
2022-10-13T02:58:52.040Z,80.73
2022-10-13T03:01:21.416Z,79.48
2022-10-13T03:03:48.480Z,78.78
2022-10-13T03:06:15.681Z,78.44
2022-10-13T03:08:45.211Z,78.48
2022-10-13T03:11:12.407Z,78.39
2022-10-13T03:13:39.551Z,79.33
2022-10-13T03:16:09.698Z,77.82
2022-10-13T03:18:36.899Z,77.79
2022-10-13T03:21:07.020Z,79.05
2022-10-13T03:23:34.440Z,78.95
2022-10-13T03:26:02.186Z,78.53
2022-10-13T03:28:29.408Z,77.41
2022-10-13T03:31:06.215Z,77.61
2022-10-13T03:33:33.320Z,77.72
2022-10-13T03:36:02.439Z,78.36
2022-10-13T03:38:31.329Z,79.38
2022-10-13T03:40:58.654Z,80.58
2022-10-13T03:43:25.806Z,80.31
2022-10-13T03:45:58.222Z,79.97
2022-10-13T03:48:26.095Z,79.90
2022-10-13T03:50:53.220Z,79.08
2022-10-13T03:53:23.015Z,78.59
2022-10-13T03:55:56.312Z,80.96
2022-10-13T03:58:25.563Z,81.28
2022-10-13T04:00:53.007Z,80.48
2022-10-13T04:03:20.676Z,81.40
2022-10-13T04:05:48.113Z,81.33
2022-10-13T04:08:15.489Z,82.26
2022-10-13T04:10:45.352Z,82.42
2022-10-13T04:13:14.814Z,81.37
2022-10-13T04:15:41.875Z,81.44
2022-10-13T04:18:09.098Z,81.48
2022-10-13T04:20:39.111Z,83.28
2022-10-13T04:23:07.432Z,83.12
2022-10-13T04:25:39.218Z,83.07
2022-10-13T04:28:08.322Z,82.06
2022-10-13T04:30:35.712Z,80.87
2022-10-13T04:33:03.457Z,80.19
2022-10-13T04:35:30.910Z,81.50
2022-10-13T04:38:00.608Z,83.03
2022-10-13T04:40:30.403Z,82.69
2022-10-13T04:42:57.482Z,80.85
2022-10-13T04:45:27.329Z,82.90
2022-10-13T04:47:54.438Z,83.69
2022-10-13T04:50:21.491Z,83.40
2022-10-13T04:52:50.682Z,84.45
2022-10-13T04:55:17.956Z,85.27
2022-10-13T04:57:45.029Z,84.97
2022-10-13T05:00:12.869Z,85.32
2022-10-13T05:02:40.041Z,84.77
2022-10-13T05:05:08.011Z,85.05
2022-10-13T05:07:35.832Z,83.60
2022-10-13T05:10:03.325Z,83.61
2022-10-13T05:12:30.786Z,82.76
2022-10-13T05:14:58.987Z,83.47
2022-10-13T05:17:26.243Z,84.21
2022-10-13T05:19:53.456Z,84.32
2022-10-13T05:22:20.910Z,83.28
2022-10-13T05:24:48.533Z,82.47
2022-10-13T05:27:16.173Z,81.51
2022-10-13T05:29:43.419Z,82.75
2022-10-13T05:32:10.543Z,82.63
2022-10-13T05:34:37.831Z,82.50
2022-10-13T05:37:05.134Z,82.06
2022-10-13T05:39:32.321Z,82.24
2022-10-13T05:42:00.514Z,82.72
2022-10-13T05:44:27.626Z,82.75
2022-10-13T05:46:54.895Z,82.01
2022-10-13T05:49:22.087Z,81.23
2022-10-13T05:51:55.091Z,81.15
2022-10-13T05:54:31.316Z,79.46
2022-10-13T05:57:28.488Z,78.28
2022-10-13T06:00:00.990Z,77.94
2022-10-13T06:02:36.629Z,77.49
2022-10-13T06:05:06.601Z,76.01
2022-10-13T06:07:34.057Z,74.79
2022-10-13T06:10:02.068Z,74.18
2022-10-13T06:12:29.205Z,72.85
2022-10-13T06:14:56.442Z,71.18
2022-10-13T06:17:26.066Z,70.06
2022-10-13T06:19:53.288Z,66.92
2022-10-13T06:22:23.232Z,65.01
2022-10-13T06:24:50.514Z,62.87
2022-10-13T06:27:20.096Z,60.63
2022-10-13T06:29:47.197Z,61.30
2022-10-13T06:32:14.412Z,57.90
2022-10-13T06:34:41.596Z,57.11
2022-10-13T06:37:09.295Z,57.97
2022-10-13T06:39:36.417Z,54.36
2022-10-13T06:42:03.901Z,57.08
2022-10-13T06:44:32.486Z,55.17
2022-10-13T06:47:01.036Z,54.08
2022-10-13T06:49:28.044Z,52.50
2022-10-13T06:51:56.872Z,53.68
2022-10-13T06:54:23.958Z,52.64
2022-10-13T06:56:51.449Z,51.53
2022-10-13T06:59:18.554Z,51.12
2022-10-13T07:01:45.621Z,51.13
2022-10-13T07:04:12.862Z,49.60
2022-10-13T07:06:40.026Z,49.29
2022-10-13T07:09:10.517Z,47.18
2022-10-13T07:11:37.518Z,46.07
2022-10-13T07:14:04.761Z,44.70
2022-10-13T07:16:34.941Z,45.63
2022-10-13T07:19:02.087Z,46.33
2022-10-13T07:21:31.917Z,46.30
2022-10-13T07:26:34.109Z,42.69
2022-10-13T07:29:02.136Z,42.79
2022-10-13T07:31:29.610Z,43.04
2022-10-13T07:34:01.569Z,40.99
2022-10-13T07:36:32.680Z,41.91
2022-10-13T07:39:04.299Z,41.70
2022-10-13T07:41:31.400Z,41.52
2022-10-13T07:43:59.041Z,41.14
2022-10-13T07:46:26.327Z,39.44
2022-10-13T07:48:58.921Z,40.30
2022-10-13T07:51:26.068Z,38.74
2022-10-13T07:53:55.570Z,39.52
2022-10-13T07:56:22.634Z,37.66
2022-10-13T07:58:49.757Z,36.44
2022-10-13T08:01:18.101Z,40.16
2022-10-13T08:03:49.835Z,39.48
2022-10-13T08:06:18.427Z,40.82
2022-10-13T08:08:45.850Z,39.35
2022-10-13T08:11:16.952Z,39.31
2022-10-13T08:13:52.073Z,39.56
2022-10-13T08:16:19.888Z,38.72
2022-10-13T08:18:50.641Z,38.79
2022-10-13T08:24:11.048Z,39.27
2022-10-13T08:26:44.274Z,37.87
2022-10-13T08:29:28.190Z,40.29
2022-10-13T08:31:56.312Z,42.04
2022-10-13T08:34:27.204Z,41.11
2022-10-13T08:36:56.468Z,40.42
2022-10-13T08:39:24.787Z,40.95
2022-10-13T08:41:52.591Z,38.89
2022-10-13T08:47:43.900Z,39.87
2022-10-13T08:50:23.309Z,44.43
2022-10-13T08:53:00.812Z,43.28
2022-10-13T08:55:42.211Z,44.19
2022-10-13T08:58:28.524Z,41.44
2022-10-13T09:01:20.726Z,41.25
2022-10-13T09:04:08.341Z,42.07
2022-10-13T09:06:51.667Z,39.56
2022-10-13T09:09:19.967Z,41.83
2022-10-13T09:11:50.790Z,37.94
2022-10-13T09:14:27.391Z,37.67
2022-10-13T09:16:58.075Z,38.87
2022-10-13T09:19:34.215Z,38.79
2022-10-13T09:22:28.585Z,37.64
2022-10-13T09:25:07.871Z,38.78
2022-10-13T09:28:00.041Z,39.23
2022-10-13T09:30:40.715Z,38.91
2022-10-13T09:33:13.667Z,37.65
2022-10-13T09:36:08.115Z,41.68
2022-10-13T09:38:35.372Z,41.96
2022-10-13T09:41:10.284Z,41.12
2022-10-13T09:44:00.820Z,41.67
2022-10-13T09:46:38.397Z,41.24
2022-10-13T09:49:34.825Z,41.69
2022-10-13T09:52:11.992Z,43.08
2022-10-13T09:54:56.303Z,39.96
2022-10-13T09:57:35.993Z,38.94
2022-10-13T10:00:15.295Z,35.23
2022-10-13T10:02:57.122Z,34.13
2022-10-13T10:05:50.851Z,36.13
2022-10-13T10:09:08.631Z,37.38
2022-10-13T10:11:41.580Z,42.10
2022-10-13T10:14:38.805Z,38.43
2022-10-13T10:17:43.928Z,38.70
2022-10-13T10:20:45.658Z,40.52
2022-10-13T10:23:47.082Z,40.35
2022-10-13T10:26:41.197Z,40.60
2022-10-13T10:29:14.991Z,40.91
2022-10-13T10:31:54.056Z,38.58
2022-10-13T10:35:14.138Z,40.32
2022-10-13T10:38:15.357Z,38.76
2022-10-13T10:41:08.417Z,39.04
2022-10-13T10:44:10.969Z,39.30
2022-10-13T10:46:50.828Z,36.54
2022-10-13T10:49:30.450Z,36.55
2022-10-13T10:51:59.778Z,37.42
2022-10-13T10:55:07.897Z,38.63
2022-10-13T10:57:59.420Z,39.28
2022-10-13T11:03:24.598Z,39.13
2022-10-13T11:05:57.626Z,37.37
2022-10-13T11:08:47.049Z,38.28
2022-10-13T11:11:25.032Z,38.64
2022-10-13T11:13:57.662Z,39.64
2022-10-13T11:16:34.290Z,39.03
2022-10-13T11:19:25.377Z,38.40
2022-10-13T11:21:55.422Z,38.39
2022-10-13T11:24:34.918Z,36.86
2022-10-13T11:27:07.991Z,38.43
2022-10-13T11:29:44.406Z,39.75
2022-10-13T11:32:35.728Z,38.58
2022-10-13T11:35:05.825Z,38.40
2022-10-13T11:38:07.757Z,37.85
2022-10-13T11:40:59.911Z,35.98
2022-10-13T11:44:00.359Z,38.39
2022-10-13T11:46:34.876Z,37.75
2022-10-13T11:49:46.164Z,36.22
2022-10-13T11:52:47.923Z,34.86
2022-10-13T11:55:53.738Z,35.09
2022-10-13T11:58:33.136Z,35.06
2022-10-13T12:01:06.384Z,34.13
2022-10-13T12:03:42.057Z,35.20
2022-10-13T12:06:36.955Z,35.95
2022-10-13T12:09:21.669Z,38.31
2022-10-13T12:12:14.261Z,37.96
2022-10-13T12:14:48.170Z,37.19
2022-10-13T12:17:27.583Z,37.57
2022-10-13T12:19:58.641Z,37.10
2022-10-13T12:22:27.744Z,38.62
2022-10-13T12:25:05.515Z,37.59
2022-10-13T12:27:48.145Z,37.17
2022-10-13T12:30:28.107Z,36.18
2022-10-13T12:32:59.623Z,36.88
2022-10-13T12:35:33.914Z,36.07
2022-10-13T12:38:14.366Z,34.75
2022-10-13T12:40:41.443Z,37.00
2022-10-13T12:43:12.882Z,39.62
2022-10-13T12:45:44.594Z,37.42
2022-10-13T12:48:33.098Z,37.35
2022-10-13T12:51:22.578Z,35.12
2022-10-13T12:53:49.610Z,35.73
2022-10-13T12:56:31.768Z,36.06
2022-10-13T12:59:01.796Z,38.00
2022-10-13T13:01:35.991Z,37.39
2022-10-13T13:04:22.411Z,38.46
2022-10-13T13:07:03.172Z,38.79
2022-10-13T13:09:36.884Z,38.36
2022-10-13T13:12:13.240Z,39.82
2022-10-13T13:14:48.612Z,38.99
2022-10-13T13:17:38.543Z,39.55
2022-10-13T13:20:37.981Z,40.49
2022-10-13T13:23:05.799Z,40.84
2022-10-13T13:25:32.782Z,43.53
2022-10-13T13:28:03.391Z,41.70
2022-10-13T13:30:30.547Z,41.46
2022-10-13T13:32:57.641Z,41.42
2022-10-13T13:35:24.593Z,40.61
2022-10-13T13:37:53.190Z,42.46
2022-10-13T13:40:24.387Z,41.09
2022-10-13T13:42:51.695Z,42.59
2022-10-13T13:45:26.958Z,41.95
2022-10-13T13:47:59.547Z,43.48
2022-10-13T13:50:38.290Z,43.59
2022-10-13T13:53:05.936Z,43.76
2022-10-13T13:55:33.099Z,43.63
2022-10-13T13:58:00.099Z,44.98
2022-10-13T14:00:27.398Z,44.03
2022-10-13T14:02:55.096Z,44.24
2022-10-13T14:05:22.199Z,43.98
2022-10-13T14:07:49.340Z,44.33
2022-10-13T14:10:16.508Z,43.87
2022-10-13T14:12:43.760Z,44.44
2022-10-13T14:15:11.218Z,42.46
2022-10-13T14:17:43.327Z,43.40
2022-10-13T14:20:10.600Z,44.51
2022-10-13T14:22:39.333Z,44.35
2022-10-13T14:25:07.644Z,42.91
2022-10-13T14:27:35.651Z,45.19
2022-10-13T14:30:04.740Z,45.11
2022-10-13T14:32:31.797Z,45.07
2022-10-13T14:34:58.850Z,46.24
2022-10-13T14:37:30.314Z,46.11
2022-10-13T14:39:59.896Z,47.23
2022-10-13T14:42:26.911Z,47.23
2022-10-13T14:44:53.916Z,48.36
2022-10-13T14:47:21.326Z,47.95
2022-10-13T14:49:48.663Z,48.21
2022-10-13T14:52:15.584Z,48.56
2022-10-13T14:54:44.971Z,48.70
2022-10-13T14:57:15.961Z,49.46
2022-10-13T14:59:46.059Z,50.25
2022-10-13T15:02:13.944Z,49.69
2022-10-13T15:04:40.979Z,49.63
2022-10-13T15:07:08.369Z,50.72
2022-10-13T15:09:52.439Z,50.18
2022-10-13T15:12:25.020Z,50.80
2022-10-13T15:14:52.029Z,51.28
2022-10-13T15:17:19.090Z,50.68
2022-10-13T15:19:46.235Z,51.16
2022-10-13T15:22:13.303Z,51.92
2022-10-13T15:24:40.207Z,52.76
2022-10-13T15:27:07.486Z,53.61
2022-10-13T15:29:34.474Z,52.82
2022-10-13T15:32:12.298Z,52.98
2022-10-13T15:34:42.269Z,53.44
2022-10-13T15:37:11.743Z,52.87
2022-10-13T15:39:39.093Z,53.29
2022-10-13T15:42:06.168Z,54.21
2022-10-13T15:44:51.293Z,52.88
2022-10-13T15:47:20.242Z,53.02
2022-10-13T15:49:47.237Z,53.13
2022-10-13T15:52:16.824Z,53.75
2022-10-13T15:54:43.929Z,52.26
2022-10-13T15:57:10.913Z,52.46
2022-10-13T15:59:37.942Z,54.73
2022-10-13T16:02:04.993Z,54.33
2022-10-13T16:04:37.130Z,53.84
2022-10-13T16:07:04.539Z,52.94
2022-10-13T16:09:31.728Z,53.66
2022-10-13T16:11:58.878Z,52.90
2022-10-13T16:14:25.914Z,53.08
2022-10-13T16:16:52.925Z,52.38
2022-10-13T16:19:20.431Z,54.78
2022-10-13T16:21:47.479Z,54.01
2022-10-13T16:24:14.505Z,55.65
2022-10-13T16:26:41.592Z,55.82
2022-10-13T16:29:08.557Z,55.36
2022-10-13T16:31:35.704Z,55.79
2022-10-13T16:34:03.501Z,55.64
2022-10-13T16:36:30.629Z,55.81
2022-10-13T16:38:58.717Z,55.70
2022-10-13T16:41:25.884Z,55.73
2022-10-13T16:43:53.019Z,55.19
2022-10-13T16:46:20.679Z,56.42
2022-10-13T16:48:48.603Z,55.39
2022-10-13T16:51:25.848Z,54.84
2022-10-13T16:54:03.618Z,55.66
2022-10-13T16:56:31.612Z,55.31
2022-10-13T16:59:05.338Z,56.10
2022-10-13T17:01:34.660Z,55.87
2022-10-13T17:04:03.016Z,55.97
2022-10-13T17:06:30.451Z,55.25
2022-10-13T17:08:59.733Z,56.17
2022-10-13T17:11:30.114Z,56.70
2022-10-13T17:13:58.790Z,55.47
2022-10-13T17:16:27.036Z,55.64
2022-10-13T17:18:55.207Z,55.80
2022-10-13T17:21:22.679Z,56.74
2022-10-13T17:23:50.801Z,57.01
2022-10-13T17:26:19.132Z,56.14
2022-10-13T17:28:46.598Z,56.82
2022-10-13T17:31:21.160Z,57.75
2022-10-13T17:33:50.146Z,58.66
2022-10-13T17:36:27.567Z,58.67
2022-10-13T17:38:59.719Z,58.08
2022-10-13T17:41:26.697Z,57.98
2022-10-13T17:43:53.755Z,57.96
2022-10-13T17:46:39.880Z,58.14
2022-10-13T17:49:10.663Z,58.08
2022-10-13T17:51:38.760Z,58.34
2022-10-13T17:54:06.841Z,57.74
2022-10-13T17:56:40.825Z,57.54
2022-10-13T17:59:09.827Z,57.48
2022-10-13T18:01:37.487Z,57.56
2022-10-13T18:04:11.284Z,58.31
2022-10-13T18:06:45.332Z,58.21
2022-10-13T18:09:26.102Z,58.69
2022-10-13T18:11:54.509Z,58.36
2022-10-13T18:14:24.312Z,57.67
2022-10-13T18:16:52.624Z,56.85
2022-10-13T18:19:21.345Z,56.81
2022-10-13T18:21:49.077Z,57.45
2022-10-13T18:24:16.212Z,57.93
2022-10-13T18:26:43.197Z,58.55
2022-10-13T18:29:14.027Z,59.54
2022-10-13T18:31:42.230Z,59.09
2022-10-13T18:34:17.089Z,60.56
2022-10-13T18:36:54.950Z,61.17
2022-10-13T18:39:27.717Z,61.18
2022-10-13T18:41:57.720Z,60.60
2022-10-13T18:44:25.238Z,61.96
2022-10-13T18:46:53.888Z,61.39
2022-10-13T18:49:31.060Z,61.98
2022-10-13T18:51:59.876Z,62.79
2022-10-13T18:54:28.017Z,62.63
2022-10-13T18:56:55.100Z,62.83
2022-10-13T18:59:23.502Z,62.69
2022-10-13T19:01:52.739Z,63.57
2022-10-13T19:04:21.532Z,63.01
2022-10-13T19:06:48.568Z,62.21
2022-10-13T19:09:17.520Z,62.11
2022-10-13T19:11:44.932Z,62.20
2022-10-13T19:14:13.981Z,62.76
2022-10-13T19:16:44.117Z,62.25
2022-10-13T19:19:13.914Z,62.38
2022-10-13T19:21:41.878Z,62.46
2022-10-13T19:24:09.961Z,61.90
2022-10-13T19:26:37.782Z,62.25
2022-10-13T19:29:12.622Z,63.29
2022-10-13T19:31:41.828Z,62.42
2022-10-13T19:34:10.936Z,62.21
2022-10-13T19:36:45.457Z,63.37
2022-10-13T19:39:24.366Z,64.69
2022-10-13T19:41:54.516Z,66.16
2022-10-13T19:44:23.803Z,66.02
2022-10-13T19:46:52.459Z,66.67
2022-10-13T19:49:21.991Z,67.06
2022-10-13T19:51:49.965Z,67.38
2022-10-13T19:54:20.720Z,67.48
2022-10-13T19:56:49.107Z,67.69
2022-10-13T19:59:17.800Z,67.08
2022-10-13T20:01:44.943Z,66.42
2022-10-13T20:04:12.411Z,66.64
2022-10-13T20:06:39.524Z,65.64
2022-10-13T20:09:07.007Z,65.30
2022-10-13T20:11:34.064Z,65.27
2022-10-13T20:14:01.093Z,65.39
2022-10-13T20:16:28.285Z,65.07
2022-10-13T20:18:58.843Z,64.42
2022-10-13T20:21:28.082Z,64.09
2022-10-13T20:23:55.841Z,63.38
2022-10-13T20:26:23.647Z,63.72
2022-10-13T20:28:52.675Z,64.24
2022-10-13T20:31:22.311Z,63.92
2022-10-13T20:33:54.254Z,63.09
2022-10-13T20:36:21.327Z,62.51
2022-10-13T20:38:49.360Z,63.16
2022-10-13T20:41:23.714Z,64.18
2022-10-13T20:43:52.469Z,63.74
2022-10-13T20:46:21.777Z,63.37
2022-10-13T20:51:37.162Z,63.51
2022-10-13T20:54:04.388Z,65.41
2022-10-13T20:56:31.636Z,65.96
2022-10-13T20:59:04.439Z,65.49
2022-10-13T21:01:31.585Z,65.83
2022-10-13T21:03:58.864Z,65.80
2022-10-13T21:06:27.132Z,65.67
2022-10-13T21:08:54.707Z,65.93
2022-10-13T21:11:23.718Z,65.76
2022-10-13T21:13:52.097Z,66.04
2022-10-13T21:16:27.343Z,65.93
2022-10-13T21:18:57.540Z,66.37
2022-10-13T21:21:28.984Z,66.29
2022-10-13T21:23:59.754Z,66.33
2022-10-13T21:26:29.337Z,66.13
2022-10-13T21:29:00.551Z,66.65
2022-10-13T21:31:28.729Z,66.21
2022-10-13T21:33:56.416Z,67.18
2022-10-13T21:36:30.498Z,67.28
2022-10-13T21:39:04.516Z,68.15
2022-10-13T21:41:31.840Z,67.71
2022-10-13T21:43:59.199Z,67.10
2022-10-13T21:46:29.346Z,67.77
2022-10-13T21:48:59.347Z,67.50
2022-10-13T21:51:36.153Z,68.67
2022-10-13T21:54:07.967Z,68.10
2022-10-13T21:56:35.854Z,68.28
2022-10-13T21:59:03.733Z,69.99
2022-10-13T22:01:34.384Z,68.91
2022-10-13T22:04:02.508Z,70.14
2022-10-13T22:06:32.235Z,69.70
2022-10-13T22:09:02.365Z,69.16
2022-10-13T22:11:32.555Z,69.35
2022-10-13T22:14:00.369Z,69.49
2022-10-13T22:16:38.066Z,69.62
2022-10-13T22:19:06.717Z,69.66
2022-10-13T22:21:38.669Z,70.55
2022-10-13T22:24:09.641Z,70.06
2022-10-13T22:26:39.057Z,71.71
2022-10-13T22:29:07.972Z,72.33
2022-10-13T22:31:36.083Z,72.75
2022-10-13T22:34:04.477Z,73.80
2022-10-13T22:36:31.907Z,72.57
2022-10-13T22:39:02.894Z,72.27
2022-10-13T22:41:31.227Z,72.34
2022-10-13T22:43:59.546Z,72.68
2022-10-13T22:46:31.995Z,72.89
2022-10-13T22:48:59.775Z,72.51
2022-10-13T22:51:29.733Z,71.95
2022-10-13T22:53:57.050Z,72.03
2022-10-13T22:56:28.164Z,72.38
2022-10-13T22:59:07.549Z,74.57
2022-10-13T23:01:35.503Z,73.74
2022-10-13T23:04:02.613Z,75.06
2022-10-13T23:06:32.774Z,75.06
2022-10-13T23:09:06.201Z,75.43
2022-10-13T23:11:34.035Z,74.26
2022-10-13T23:14:02.019Z,74.66
2022-10-13T23:16:30.514Z,74.91
2022-10-13T23:18:57.696Z,74.17
2022-10-13T23:21:28.389Z,73.33
2022-10-13T23:24:02.350Z,74.25
2022-10-13T23:26:30.435Z,74.95
2022-10-13T23:28:58.650Z,73.85
2022-10-13T23:31:29.603Z,73.23
2022-10-13T23:33:57.312Z,75.66
2022-10-13T23:36:30.351Z,74.90
2022-10-13T23:39:04.603Z,75.30
2022-10-13T23:41:32.273Z,75.02
2022-10-13T23:43:59.426Z,75.63
2022-10-13T23:46:26.634Z,74.39
2022-10-13T23:48:53.691Z,74.44
2022-10-13T23:51:22.199Z,75.60
2022-10-13T23:53:50.075Z,75.66
2022-10-13T23:56:17.706Z,76.67
2022-10-13T23:58:45.180Z,76.09
